createdAt,value
2022-09-09T00:02:10.075Z,18.44
2022-09-09T00:04:39.737Z,18.43
2022-09-09T00:07:27.570Z,18.41
2022-09-09T00:10:40.667Z,18.38
2022-09-09T00:13:30.783Z,18.35
2022-09-09T00:16:04.930Z,18.33
2022-09-09T00:19:00.565Z,18.31
2022-09-09T00:21:40.401Z,18.28
2022-09-09T00:24:49.974Z,18.25
2022-09-09T00:27:33.367Z,18.22
2022-09-09T00:30:29.970Z,18.20
2022-09-09T00:33:13.701Z,18.16
2022-09-09T00:36:01.820Z,18.13
2022-09-09T00:38:39.592Z,18.07
2022-09-09T00:41:44.391Z,18.02
2022-09-09T00:45:14.839Z,17.99
2022-09-09T00:47:52.910Z,17.95
2022-09-09T00:50:54.105Z,17.93
2022-09-09T00:54:00.836Z,17.91
2022-09-09T00:56:43.472Z,17.88
2022-09-09T00:59:11.274Z,17.85
2022-09-09T01:01:40.846Z,17.83
2022-09-09T01:04:18.350Z,17.81
2022-09-09T01:06:53.423Z,17.79
2022-09-09T01:09:39.742Z,17.77
2022-09-09T01:12:44.839Z,17.74
2022-09-09T01:15:23.083Z,17.71
2022-09-09T01:18:02.450Z,17.69
2022-09-09T01:20:42.538Z,17.66
2022-09-09T01:23:16.292Z,17.64
2022-09-09T01:26:16.989Z,17.62
2022-09-09T01:28:48.648Z,17.56
2022-09-09T01:32:03.820Z,17.49
2022-09-09T01:34:37.793Z,17.39
2022-09-09T01:37:10.749Z,17.35
2022-09-09T01:39:40.940Z,17.35
2022-09-09T01:42:11.313Z,17.34
2022-09-09T01:44:39.571Z,17.33
2022-09-09T01:47:08.060Z,17.31
2022-09-09T01:49:35.790Z,17.29
2022-09-09T01:52:03.954Z,17.21
2022-09-09T01:54:33.451Z,17.14
2022-09-09T01:57:23.415Z,17.08
2022-09-09T02:00:14.671Z,17.06
2022-09-09T02:03:10.229Z,17.96
2022-09-09T02:05:42.753Z,18.82
2022-09-09T02:08:16.764Z,19.23
2022-09-09T02:11:01.672Z,19.52
2022-09-09T02:13:30.291Z,20.20
2022-09-09T02:16:40.941Z,20.29
2022-09-09T02:19:26.830Z,21.20
2022-09-09T02:21:57.351Z,21.61
2022-09-09T02:24:26.129Z,22.13
2022-09-09T02:26:55.522Z,22.48
2022-09-09T02:29:38.767Z,22.37
2022-09-09T02:32:13.383Z,22.39
2022-09-09T02:34:45.625Z,22.45
2022-09-09T02:37:14.671Z,22.30
2022-09-09T02:39:42.846Z,22.90
2022-09-09T02:42:10.852Z,22.99
2022-09-09T02:44:38.605Z,22.66
2022-09-09T02:47:35.081Z,22.21
2022-09-09T02:50:36.860Z,21.97
2022-09-09T02:53:22.696Z,21.78
2022-09-09T02:56:14.841Z,21.45
2022-09-09T02:58:43.145Z,21.05
2022-09-09T03:01:11.312Z,20.70
2022-09-09T03:03:39.454Z,20.34
2022-09-09T03:06:07.258Z,20.01
2022-09-09T03:08:35.212Z,19.75
2022-09-09T03:11:03.476Z,19.52
2022-09-09T03:13:31.368Z,19.32
2022-09-09T03:15:59.923Z,19.07
2022-09-09T03:18:29.216Z,18.84
2022-09-09T03:20:57.164Z,18.77
2022-09-09T03:23:25.334Z,18.58
2022-09-09T03:25:53.392Z,18.35
2022-09-09T03:31:31.265Z,17.90
2022-09-09T03:33:59.345Z,17.77
2022-09-09T03:36:27.807Z,17.63
2022-09-09T03:38:56.737Z,17.49
2022-09-09T03:41:25.246Z,17.37
2022-09-09T03:43:53.199Z,17.27
2022-09-09T03:46:23.565Z,17.16
2022-09-09T03:48:53.333Z,17.07
2022-09-09T03:51:21.154Z,16.98
2022-09-09T03:53:49.031Z,16.89
2022-09-09T03:56:17.305Z,16.82
2022-09-09T03:58:45.227Z,16.74
2022-09-09T04:01:15.248Z,16.69
2022-09-09T04:03:43.621Z,16.63
2022-09-09T04:06:14.555Z,16.58
2022-09-09T04:08:42.892Z,16.53
2022-09-09T04:11:10.863Z,16.47
2022-09-09T04:13:40.314Z,16.42
2022-09-09T04:16:11.919Z,16.37
2022-09-09T04:18:40.636Z,16.32
2022-09-09T04:21:10.139Z,16.27
2022-09-09T04:23:37.943Z,16.25
2022-09-09T04:26:06.978Z,16.25
2022-09-09T04:28:37.070Z,16.26
2022-09-09T04:31:10.857Z,16.26
2022-09-09T04:33:40.744Z,16.27
2022-09-09T04:36:09.756Z,16.27
2022-09-09T04:38:37.717Z,16.29
2022-09-09T04:41:06.432Z,16.30
2022-09-09T04:43:35.503Z,16.30
2022-09-09T04:46:03.372Z,16.30
2022-09-09T04:48:32.786Z,16.31
2022-09-09T04:51:07.124Z,16.33
2022-09-09T04:53:38.397Z,16.34
2022-09-09T04:56:08.446Z,16.32
2022-09-09T04:58:36.962Z,16.32
2022-09-09T05:01:19.387Z,16.35
2022-09-09T05:03:47.663Z,16.39
2022-09-09T05:06:21.064Z,16.42
2022-09-09T05:08:50.437Z,16.46
2022-09-09T05:11:31.017Z,16.49
2022-09-09T05:13:58.815Z,16.47
2022-09-09T05:16:27.651Z,16.42
2022-09-09T05:19:04.397Z,16.38
2022-09-09T05:21:32.749Z,16.40
2022-09-09T05:24:01.741Z,16.43
2022-09-09T05:26:33.587Z,16.40
2022-09-09T05:29:11.634Z,16.36
2022-09-09T05:31:43.101Z,16.34
2022-09-09T05:34:13.657Z,16.33
2022-09-09T05:36:41.747Z,16.31
2022-09-09T05:39:17.473Z,16.30
2022-09-09T05:41:45.456Z,16.29
2022-09-09T05:44:13.780Z,16.32
2022-09-09T05:46:41.727Z,16.32
2022-09-09T05:50:02.856Z,16.31
2022-09-09T06:02:08.512Z,16.58
2022-09-09T06:05:29.402Z,16.60
2022-09-09T06:08:49.874Z,16.59
2022-09-09T06:11:34.812Z,16.61
2022-09-09T06:14:06.419Z,16.63
2022-09-09T06:16:39.692Z,16.66
2022-09-09T06:19:24.015Z,16.68
2022-09-09T06:21:58.359Z,16.71
2022-09-09T06:24:35.368Z,16.75
2022-09-09T06:27:39.860Z,16.78
2022-09-09T06:35:05.321Z,16.93
2022-09-09T06:37:34.100Z,17.00
2022-09-09T06:45:44.405Z,17.16
2022-09-09T07:10:11.103Z,17.74
2022-09-09T08:37:51.618Z,23.54
2022-09-09T08:40:31.308Z,23.81
2022-09-09T08:43:03.937Z,24.14
2022-09-09T08:46:25.934Z,24.48
2022-09-09T08:49:07.235Z,24.92
2022-09-09T08:51:35.111Z,25.25
2022-09-09T08:54:04.419Z,25.51
2022-09-09T08:56:33.747Z,25.74
2022-09-09T08:59:04.398Z,25.93
2022-09-09T09:01:55.597Z,26.14
2022-09-09T09:04:53.681Z,26.37
2022-09-09T09:07:56.994Z,26.61
2022-09-09T09:10:55.091Z,26.95
2022-09-09T09:14:15.025Z,27.26
2022-09-09T09:17:16.340Z,27.60
2022-09-09T09:19:45.441Z,27.80
2022-09-09T09:22:59.691Z,27.98
2022-09-09T09:25:39.618Z,28.30
2022-09-09T09:28:19.469Z,28.60
2022-09-09T09:31:02.733Z,28.85
2022-09-09T09:33:54.214Z,29.07
2022-09-09T09:36:35.007Z,29.27
2022-09-09T09:45:36.356Z,29.72
2022-09-09T09:48:07.959Z,29.88
2022-09-09T09:50:36.075Z,29.99
2022-09-09T09:53:06.204Z,30.14
2022-09-09T09:55:36.380Z,30.27
2022-09-09T09:58:06.905Z,30.37
2022-09-09T10:00:37.633Z,30.41
2022-09-09T10:03:38.722Z,30.44
2022-09-09T10:06:10.723Z,30.47
2022-09-09T10:08:47.636Z,30.54
2022-09-09T10:12:14.960Z,30.65
2022-09-09T10:15:47.394Z,30.78
2022-09-09T10:19:14.332Z,30.75
2022-09-09T10:22:21.818Z,30.69
2022-09-09T10:24:56.797Z,30.70
2022-09-09T10:27:57.019Z,30.79
2022-09-09T10:30:54.308Z,30.92
2022-09-09T10:33:57.526Z,31.00
2022-09-09T10:36:30.859Z,31.03
2022-09-09T10:39:07.864Z,31.08
2022-09-09T10:42:07.127Z,31.12
2022-09-09T10:45:08.763Z,31.12
2022-09-09T10:48:10.529Z,31.02
2022-09-09T10:51:04.620Z,30.91
2022-09-09T10:54:00.943Z,30.83
2022-09-09T10:56:30.376Z,30.74
2022-09-09T10:59:24.741Z,30.60
2022-09-09T11:02:03.585Z,30.29
2022-09-09T11:05:04.301Z,29.98
2022-09-09T11:07:44.672Z,29.84
2022-09-09T11:11:05.665Z,29.68
2022-09-09T11:13:43.899Z,29.62
2022-09-09T11:16:43.297Z,29.63
2022-09-09T11:19:28.498Z,29.49
2022-09-09T11:21:59.239Z,29.26
2022-09-09T11:25:08.313Z,29.08
2022-09-09T11:27:56.692Z,28.96
2022-09-09T11:30:56.722Z,28.99
2022-09-09T11:33:53.031Z,29.09
2022-09-09T11:37:07.724Z,29.19
2022-09-09T11:40:01.469Z,29.28
2022-09-09T11:42:29.609Z,29.30
2022-09-09T11:44:58.550Z,29.34
2022-09-09T11:47:31.466Z,29.38
2022-09-09T11:50:32.398Z,29.35
2022-09-09T11:53:15.390Z,29.19
2022-09-09T11:55:43.282Z,29.02
2022-09-09T11:58:12.280Z,28.96
2022-09-09T12:00:49.123Z,28.99
2022-09-09T12:03:47.170Z,28.97
2022-09-09T12:06:33.101Z,28.83
2022-09-09T12:09:45.669Z,28.66
2022-09-09T12:12:13.663Z,28.42
2022-09-09T12:15:04.754Z,28.22
2022-09-09T12:18:02.865Z,28.00
2022-09-09T12:20:32.990Z,27.77
2022-09-09T12:23:38.898Z,27.63
2022-09-09T12:26:12.061Z,27.50
2022-09-09T12:29:48.170Z,27.43
2022-09-09T12:32:24.521Z,27.49
2022-09-09T12:35:04.648Z,27.58
2022-09-09T12:37:39.781Z,27.64
2022-09-09T12:40:40.229Z,27.66
2022-09-09T12:43:22.284Z,27.61
2022-09-09T12:45:58.908Z,27.52
2022-09-09T12:53:34.151Z,27.45
2022-09-09T12:56:41.373Z,27.54
2022-09-09T12:59:40.634Z,27.60
2022-09-09T13:02:23.010Z,27.65
2022-09-09T13:04:51.752Z,27.66
2022-09-09T13:07:22.716Z,27.59
2022-09-09T13:09:50.770Z,27.49
2022-09-09T13:12:23.893Z,27.40
2022-09-09T13:14:57.408Z,27.33
2022-09-09T13:17:30.163Z,27.31
2022-09-09T13:19:58.446Z,27.30
2022-09-09T13:22:37.463Z,27.28
2022-09-09T13:25:10.116Z,27.24
2022-09-09T13:27:42.024Z,27.15
2022-09-09T13:30:33.494Z,27.02
2022-09-09T13:33:24.328Z,26.85
2022-09-09T13:35:59.956Z,26.68
2022-09-09T13:38:30.496Z,26.52
2022-09-09T13:41:14.714Z,26.37
2022-09-09T13:43:50.406Z,26.23
2022-09-09T13:46:40.178Z,26.09
2022-09-09T13:49:11.254Z,25.97
2022-09-09T13:51:48.021Z,25.90
2022-09-09T13:54:21.518Z,25.87
2022-09-09T13:56:50.813Z,25.86
2022-09-09T13:59:22.840Z,25.85
2022-09-09T14:01:53.506Z,25.84
2022-09-09T14:04:30.139Z,25.82
2022-09-09T14:06:58.332Z,25.80
2022-09-09T14:09:26.107Z,25.77
2022-09-09T14:11:54.172Z,25.73
2022-09-09T14:14:22.491Z,25.72
2022-09-09T14:16:50.220Z,25.68
2022-09-09T14:19:20.572Z,25.64
2022-09-09T14:21:48.453Z,25.60
2022-09-09T14:24:16.683Z,25.57
2022-09-09T14:26:44.757Z,25.52
2022-09-09T14:29:13.069Z,25.46
2022-09-09T14:31:40.874Z,25.41
2022-09-09T14:34:08.972Z,25.37
2022-09-09T14:36:55.042Z,25.33
2022-09-09T14:39:49.756Z,25.32
2022-09-09T14:42:24.747Z,25.30
2022-09-09T14:44:54.761Z,25.30
2022-09-09T14:47:23.287Z,25.29
2022-09-09T14:49:51.307Z,25.28
2022-09-09T14:52:19.213Z,25.27
2022-09-09T14:54:47.740Z,25.25
2022-09-09T14:57:15.624Z,25.22
2022-09-09T14:59:51.504Z,25.18
2022-09-09T15:02:23.962Z,25.16
2022-09-09T15:04:56.578Z,25.13
2022-09-09T15:07:25.800Z,25.10
2022-09-09T15:09:54.386Z,25.06
2022-09-09T15:12:26.992Z,25.02
2022-09-09T15:14:57.681Z,24.94
2022-09-09T15:17:27.082Z,24.86
2022-09-09T15:19:56.092Z,24.79
2022-09-09T15:22:25.479Z,24.71
2022-09-09T15:24:53.292Z,24.63
2022-09-09T15:27:24.123Z,24.56
2022-09-09T15:29:52.828Z,24.47
2022-09-09T15:32:20.693Z,24.39
2022-09-09T15:34:49.072Z,24.30
2022-09-09T15:37:17.095Z,24.22
2022-09-09T15:39:45.400Z,24.14
2022-09-09T15:42:14.661Z,24.06
2022-09-09T15:44:45.806Z,23.97
2022-09-09T15:47:46.671Z,23.89
2022-09-09T15:50:14.818Z,23.81
2022-09-09T15:52:44.024Z,23.75
2022-09-09T15:55:12.114Z,23.69
2022-09-09T15:57:42.869Z,23.63
2022-09-09T16:00:51.024Z,23.56
2022-09-09T16:03:24.043Z,23.50
2022-09-09T16:05:53.384Z,23.45
2022-09-09T16:08:21.728Z,23.41
2022-09-09T16:10:50.075Z,23.37
2022-09-09T16:13:18.441Z,23.32
2022-09-09T16:15:48.862Z,23.28
2022-09-09T16:18:17.301Z,23.23
2022-09-09T16:20:54.959Z,23.17
2022-09-09T16:23:22.949Z,23.10
2022-09-09T16:26:05.051Z,23.05
2022-09-09T16:28:33.630Z,22.99
2022-09-09T16:31:07.495Z,22.94
2022-09-09T16:33:35.902Z,22.88
2022-09-09T16:36:16.410Z,22.82
2022-09-09T16:38:44.847Z,22.76
2022-09-09T16:41:15.082Z,22.70
2022-09-09T16:43:43.036Z,22.64
2022-09-09T16:46:17.723Z,22.57
2022-09-09T16:48:47.063Z,22.51
2022-09-09T16:51:28.329Z,22.45
2022-09-09T16:53:59.129Z,22.39
2022-09-09T16:56:29.806Z,22.34
2022-09-09T16:59:00.654Z,22.30
2022-09-09T17:01:38.269Z,22.31
2022-09-09T17:04:10.075Z,22.34
2022-09-09T17:06:39.311Z,22.36
2022-09-09T17:09:11.778Z,22.36
2022-09-09T17:11:59.953Z,22.35
2022-09-09T17:14:28.003Z,22.35
2022-09-09T17:16:55.982Z,22.33
2022-09-09T17:19:24.269Z,22.32
2022-09-09T17:24:41.597Z,22.27
2022-09-09T17:27:10.033Z,22.25
2022-09-09T17:29:40.149Z,22.23
2022-09-09T17:32:43.958Z,22.20
2022-09-09T17:35:33.898Z,22.17
2022-09-09T17:38:12.792Z,22.14
2022-09-09T17:40:44.269Z,22.11
2022-09-09T17:43:24.268Z,22.08
2022-09-09T17:45:56.669Z,22.05
2022-09-09T17:48:25.379Z,22.03
2022-09-09T17:51:08.392Z,22.00
2022-09-09T17:54:01.276Z,21.96
2022-09-09T17:56:42.212Z,21.93
2022-09-09T17:59:15.010Z,21.89
2022-09-09T18:01:49.644Z,21.83
2022-09-09T18:04:23.749Z,21.80
2022-09-09T18:06:56.038Z,21.76
2022-09-09T18:09:27.252Z,21.73
2022-09-09T18:11:58.050Z,21.70
2022-09-09T18:14:31.960Z,21.67
2022-09-09T18:17:01.994Z,21.64
2022-09-09T18:19:33.017Z,21.61
2022-09-09T18:22:12.292Z,21.58
2022-09-09T18:24:41.642Z,21.55
2022-09-09T18:27:10.113Z,21.52
2022-09-09T18:29:38.472Z,21.48
2022-09-09T18:32:08.424Z,21.44
2022-09-09T18:34:37.337Z,21.40
2022-09-09T18:37:05.556Z,21.36
2022-09-09T18:39:33.742Z,21.31
2022-09-09T18:42:02.940Z,21.28
2022-09-09T18:44:34.881Z,21.23
2022-09-09T18:47:03.965Z,21.18
2022-09-09T18:49:33.429Z,21.12
2022-09-09T18:52:16.126Z,21.05
2022-09-09T18:54:51.146Z,20.99
2022-09-09T18:57:22.116Z,20.93
2022-09-09T18:59:54.746Z,20.88
2022-09-09T19:02:23.297Z,20.82
2022-09-09T19:04:51.563Z,20.77
2022-09-09T19:07:23.004Z,20.71
2022-09-09T19:09:51.568Z,20.66
2022-09-09T19:12:20.064Z,20.61
2022-09-09T19:14:50.241Z,20.56
2022-09-09T19:17:18.310Z,20.51
2022-09-09T19:19:46.477Z,20.46
2022-09-09T19:22:14.599Z,20.39
2022-09-09T19:24:47.292Z,20.34
2022-09-09T19:27:17.155Z,20.29
2022-09-09T19:29:59.466Z,20.24
2022-09-09T19:32:53.290Z,20.17
2022-09-09T19:35:20.038Z,20.12
2022-09-09T19:37:50.744Z,20.07
2022-09-09T19:40:22.267Z,20.02
2022-09-09T19:42:57.319Z,19.98
2022-09-09T19:45:33.095Z,19.94
2022-09-09T19:48:07.393Z,19.89
2022-09-09T19:50:46.612Z,19.84
2022-09-09T19:53:18.568Z,19.79
2022-09-09T19:55:52.969Z,19.76
2022-09-09T19:58:24.973Z,19.72
2022-09-09T20:01:19.092Z,19.69
2022-09-09T20:03:54.764Z,19.65
2022-09-09T20:06:29.482Z,19.62
2022-09-09T20:09:04.210Z,19.58
2022-09-09T20:11:35.903Z,19.55
2022-09-09T20:14:07.012Z,19.52
2022-09-09T20:16:40.530Z,19.48
2022-09-09T20:19:11.959Z,19.44
2022-09-09T20:21:47.876Z,19.41
2022-09-09T20:24:19.597Z,19.38
2022-09-09T20:26:49.094Z,19.36
2022-09-09T20:29:19.939Z,19.35
2022-09-09T20:31:54.981Z,19.32
2022-09-09T20:34:25.976Z,19.30
2022-09-09T20:36:57.206Z,19.28
2022-09-09T20:39:26.538Z,19.25
2022-09-09T20:41:54.274Z,19.24
2022-09-09T20:44:24.496Z,19.22
2022-09-09T20:46:57.062Z,19.20
2022-09-09T20:49:25.726Z,19.41
2022-09-09T20:51:54.061Z,20.53
2022-09-09T20:54:25.934Z,20.90
2022-09-09T20:56:55.405Z,20.89
2022-09-09T20:59:25.923Z,21.67
2022-09-09T21:01:55.095Z,22.14
2022-09-09T21:04:23.168Z,21.89
2022-09-09T21:06:51.265Z,21.59
2022-09-09T21:09:20.451Z,21.39
2022-09-09T21:11:48.205Z,21.25
2022-09-09T21:14:16.006Z,21.17
2022-09-09T21:16:43.813Z,21.07
2022-09-09T21:19:11.750Z,21.00
2022-09-09T21:21:39.522Z,20.96
2022-09-09T21:24:07.433Z,20.94
2022-09-09T21:26:44.859Z,20.92
2022-09-09T21:29:38.982Z,20.86
2022-09-09T21:35:14.219Z,20.74
2022-09-09T21:37:48.711Z,20.65
2022-09-09T21:40:26.661Z,20.63
2022-09-09T21:43:01.734Z,20.61
2022-09-09T21:45:34.916Z,20.56
2022-09-09T21:48:45.157Z,20.51
2022-09-09T21:54:31.781Z,20.38
2022-09-09T21:56:59.630Z,20.32
2022-09-09T22:03:13.233Z,20.19
2022-09-09T22:07:00.600Z,20.26
2022-09-09T22:09:33.138Z,20.51
2022-09-09T22:13:24.328Z,20.41
2022-09-09T22:20:52.957Z,20.23
2022-09-09T22:27:31.203Z,20.12
2022-09-09T22:28:02.897Z,20.16
2022-09-09T22:48:44.240Z,19.82
2022-09-09T22:51:22.282Z,19.81
2022-09-09T22:53:53.530Z,19.79
2022-09-09T22:56:24.595Z,19.83
2022-09-09T22:58:57.020Z,20.34
2022-09-09T23:01:27.158Z,21.18
2022-09-09T23:04:01.778Z,22.31
2022-09-09T23:06:30.476Z,23.19
2022-09-09T23:09:01.649Z,23.55
2022-09-09T23:11:33.510Z,23.91
2022-09-09T23:14:05.447Z,24.18
2022-09-09T23:16:39.891Z,24.35
2022-09-09T23:19:10.948Z,24.34
2022-09-09T23:21:40.585Z,23.60
2022-09-09T23:24:12.977Z,22.91
2022-09-09T23:26:43.520Z,22.61
2022-09-09T23:29:14.863Z,23.61
2022-09-09T23:31:44.997Z,24.33
2022-09-09T23:34:13.997Z,23.62
2022-09-09T23:36:42.420Z,22.88
2022-09-09T23:39:12.001Z,22.32
2022-09-09T23:41:40.443Z,22.19
2022-09-09T23:44:08.602Z,23.00
2022-09-09T23:46:39.573Z,23.96
2022-09-09T23:49:09.891Z,24.46
2022-09-09T23:51:38.664Z,23.66
2022-09-09T23:54:06.662Z,22.88
2022-09-09T23:56:40.530Z,22.32
2022-09-09T23:59:08.720Z,21.88
